Time;durP1;ratioP1;P1;durP2;ratioP2;P2;SDS_P1;SDS_P2;PMS_P1;PMS_P2;Temp;Humidity;BMP_temperature;BMP_pressure;BME280_temperature;BME280_humidity;BME280_pressure;Samples;Min_cycle;Max_cycle;Signal;HPM_P1;HPM_P2
2022/06/28 00:01:46;;;;;;;7.57;3.77;;;13.10;99.90;;;;;;4147574;28;20208;-74
2022/06/28 00:03:47;;;;;;;3.57;3.10;;;13.00;99.90;;;;;;4130963;28;20218;-74
2022/06/28 00:05:47;;;;;;;5.37;4.53;;;12.90;99.90;;;;;;4148397;28;20614;-74
2022/06/28 00:07:48;;;;;;;4.43;3.90;;;12.90;99.90;;;;;;4148160;28;20189;-74
2022/06/28 00:09:49;;;;;;;4.33;3.60;;;12.90;99.90;;;;;;4148293;28;20268;-74
2022/06/28 00:11:50;;;;;;;3.93;3.43;;;13.00;99.90;;;;;;4147784;28;20263;-74
2022/06/28 00:13:51;;;;;;;4.60;3.30;;;13.00;99.90;;;;;;4148192;28;20181;-74
2022/06/28 00:16:07;;;;;;;5.73;3.57;;;12.90;99.90;;;;;;4148067;28;20178;-74
2022/06/28 00:18:07;;;;;;;4.20;3.40;;;13.00;99.90;;;;;;4130764;28;20186;-74
2022/06/28 00:20:09;;;;;;;4.60;3.90;;;12.90;99.90;;;;;;4148055;28;20181;-74
2022/06/28 00:22:10;;;;;;;6.87;4.17;;;12.90;99.90;;;;;;4147338;28;20200;-74
2022/06/28 00:24:11;;;;;;;5.97;3.90;;;12.80;99.90;;;;;;4147785;28;20241;-74
2022/06/28 00:26:11;;;;;;;4.60;3.50;;;12.70;99.90;;;;;;4147849;28;20257;-74
2022/06/28 00:28:12;;;;;;;4.63;3.30;;;12.80;99.90;;;;;;4147831;28;20194;-74
2022/06/28 00:30:13;;;;;;;7.50;3.13;;;12.70;99.90;;;;;;4147759;28;20231;-74
2022/06/28 00:32:14;;;;;;;4.10;3.10;;;12.80;99.90;;;;;;4129766;28;20198;-74
2022/06/28 00:34:14;;;;;;;3.10;2.77;;;12.70;99.90;;;;;;4147707;28;20177;-74
2022/06/28 00:36:15;;;;;;;3.30;2.80;;;12.70;99.90;;;;;;4147843;28;20173;-74
2022/06/28 00:38:16;;;;;;;4.13;3.20;;;12.60;99.90;;;;;;4147631;28;20642;-74
2022/06/28 00:40:16;;;;;;;3.70;2.90;;;12.70;99.90;;;;;;4147716;28;20174;-74
2022/06/28 00:42:18;;;;;;;7.93;3.17;;;12.70;99.90;;;;;;4146871;28;20278;-74
2022/06/28 00:44:20;;;;;;;4.77;3.60;;;12.70;99.90;;;;;;4147234;28;20688;-75
2022/06/28 00:46:21;;;;;;;4.83;3.23;;;12.70;99.90;;;;;;4147601;28;20231;-74
2022/06/28 00:48:23;;;;;;;4.07;3.27;;;12.80;99.90;;;;;;4147582;28;20196;-75
2022/06/28 00:50:24;;;;;;;5.67;3.53;;;12.80;99.90;;;;;;4147374;28;20178;-74
2022/06/28 00:52:25;;;;;;;4.50;3.83;;;12.80;99.90;;;;;;4146641;28;20213;-74
2022/06/28 00:54:26;;;;;;;3.13;2.83;;;12.80;99.90;;;;;;4129121;28;20209;-74
2022/06/28 00:56:27;;;;;;;3.10;2.80;;;12.90;99.90;;;;;;4147602;28;20214;-74
2022/06/28 00:58:27;;;;;;;3.57;2.50;;;12.90;99.90;;;;;;4130210;28;20190;-74
2022/06/28 01:00:30;;;;;;;4.27;3.40;;;13.00;99.90;;;;;;4147508;28;20192;-74
2022/06/28 01:02:30;;;;;;;3.23;2.93;;;13.00;99.90;;;;;;4146637;28;20260;-74
2022/06/28 01:04:31;;;;;;;3.77;3.00;;;13.10;99.90;;;;;;4147269;28;20206;-74
2022/06/28 01:06:32;;;;;;;3.33;2.90;;;13.00;99.90;;;;;;4147090;28;20210;-74
2022/06/28 01:08:33;;;;;;;3.70;2.83;;;13.20;99.90;;;;;;4129834;28;20178;-74
2022/06/28 01:10:35;;;;;;;3.47;2.53;;;13.40;99.90;;;;;;4147317;28;20178;-74
2022/06/28 01:12:35;;;;;;;4.23;2.57;;;13.40;99.90;;;;;;4146808;28;20196;-74
2022/06/28 01:14:36;;;;;;;3.27;2.60;;;13.40;99.90;;;;;;4146805;28;20829;-74
2022/06/28 01:16:37;;;;;;;3.73;2.83;;;13.40;99.90;;;;;;4146959;28;20256;-74
2022/06/28 01:18:38;;;;;;;3.13;2.83;;;13.40;99.90;;;;;;4147144;28;20364;-74
2022/06/28 01:20:44;;;;;;;2.93;2.73;;;13.30;99.90;;;;;;4129482;28;20692;-74
2022/06/28 01:22:44;;;;;;;4.20;2.87;;;13.30;99.90;;;;;;4147050;28;20296;-74
2022/06/28 01:24:45;;;;;;;3.73;2.77;;;13.20;99.90;;;;;;4147185;28;20209;-75
2022/06/28 01:26:46;;;;;;;2.77;2.50;;;13.30;99.90;;;;;;4147091;28;20182;-74
2022/06/28 01:28:48;;;;;;;4.30;2.57;;;13.30;99.90;;;;;;4147203;28;20178;-74
2022/06/28 01:30:49;;;;;;;3.57;2.37;;;13.10;99.90;;;;;;4128849;28;20310;-74
2022/06/28 01:32:50;;;;;;;3.37;3.07;;;13.10;99.90;;;;;;4147190;28;20301;-74
2022/06/28 01:34:50;;;;;;;2.73;2.53;;;13.20;99.90;;;;;;4147070;28;20174;-74
2022/06/28 01:36:51;;;;;;;2.60;2.40;;;13.10;99.90;;;;;;4147117;28;20184;-74
2022/06/28 01:38:52;;;;;;;2.90;2.60;;;13.10;99.90;;;;;;4147066;28;20182;-74
2022/06/28 01:40:52;;;;;;;3.30;3.00;;;13.00;99.90;;;;;;4146333;28;20182;-75
2022/06/28 01:42:53;;;;;;;4.43;2.83;;;13.00;99.90;;;;;;4129454;28;20669;-74
2022/06/28 01:44:55;;;;;;;2.77;2.50;;;13.00;99.90;;;;;;4146661;28;20300;-74
2022/06/28 01:46:57;;;;;;;3.63;2.60;;;13.10;99.90;;;;;;4147240;28;20181;-74
2022/06/28 01:48:58;;;;;;;2.67;2.47;;;13.10;99.90;;;;;;4129199;28;20217;-74
2022/06/28 01:50:59;;;;;;;3.30;2.40;;;13.00;99.90;;;;;;4146514;28;20197;-74
2022/06/28 01:53:00;;;;;;;3.20;2.40;;;13.00;99.90;;;;;;4146992;28;20300;-75
2022/06/28 01:55:00;;;;;;;3.07;2.60;;;13.00;99.90;;;;;;4147155;28;20186;-73
2022/06/28 01:57:02;;;;;;;4.00;2.87;;;13.00;99.90;;;;;;4146923;28;20185;-74
2022/06/28 01:59:03;;;;;;;6.70;3.60;;;13.00;99.90;;;;;;4146970;28;20178;-74
2022/06/28 02:01:04;;;;;;;2.93;2.63;;;12.90;99.90;;;;;;4146205;28;20188;-73
2022/06/28 02:03:04;;;;;;;3.80;3.03;;;12.90;99.90;;;;;;4146702;28;20297;-73
2022/06/28 02:05:05;;;;;;;4.90;4.23;;;13.00;99.90;;;;;;4145971;28;20227;-74
2022/06/28 02:07:06;;;;;;;3.43;3.07;;;13.10;99.90;;;;;;4146158;28;20174;-74
2022/06/28 02:09:06;;;;;;;3.27;2.97;;;13.00;99.90;;;;;;4146373;28;20871;-74
2022/06/28 02:11:07;;;;;;;5.57;3.43;;;13.10;99.90;;;;;;4122499;28;20182;-74
2022/06/28 02:13:07;;;;;;;4.30;2.80;;;13.20;99.90;;;;;;4145915;28;20688;-74
2022/06/28 02:15:09;;;;;;;4.63;2.70;;;13.20;99.90;;;;;;4146320;28;20568;-74
2022/06/28 02:17:11;;;;;;;3.43;2.90;;;13.30;99.90;;;;;;4128569;28;20300;-74
2022/06/28 02:19:12;;;;;;;3.63;2.53;;;13.30;99.90;;;;;;4146138;28;20196;-74
2022/06/28 02:21:12;;;;;;;3.87;3.40;;;13.30;99.90;;;;;;4145399;28;20178;-74
2022/06/28 02:23:13;;;;;;;5.17;3.33;;;13.30;99.90;;;;;;4128913;28;20186;-74
2022/06/28 02:25:14;;;;;;;3.00;2.80;;;13.20;99.90;;;;;;4146109;28;20778;-74
2022/06/28 02:27:14;;;;;;;4.57;3.00;;;13.20;99.90;;;;;;4146478;28;20189;-74
2022/06/28 02:29:15;;;;;;;4.93;3.03;;;13.20;99.90;;;;;;4146215;28;20178;-74
2022/06/28 02:31:15;;;;;;;3.10;2.80;;;13.20;99.90;;;;;;4145380;28;20177;-74
2022/06/28 02:33:16;;;;;;;3.57;3.23;;;13.10;99.90;;;;;;4145519;28;20716;-74
2022/06/28 02:42:14;;;;;;;4.17;2.83;;;13.10;99.90;;;;;;4145947;28;20312;-74
2022/06/28 02:44:17;;;;;;;4.30;2.83;;;13.10;99.90;;;;;;4145899;28;20238;-74
2022/06/28 02:46:18;;;;;;;4.47;2.83;;;13.30;99.90;;;;;;4128520;28;20692;-74
2022/06/28 02:48:19;;;;;;;3.10;2.80;;;13.30;99.90;;;;;;4145762;28;20174;-74
2022/06/28 02:50:20;;;;;;;4.63;2.93;;;13.20;99.90;;;;;;4128578;28;20269;-74
2022/06/28 02:52:20;;;;;;;6.00;2.97;;;13.20;99.90;;;;;;4145144;28;20241;-74
2022/06/28 02:54:21;;;;;;;3.07;2.60;;;13.00;99.90;;;;;;4128541;28;20728;-74
2022/06/28 02:56:22;;;;;;;4.63;2.40;;;13.00;99.90;;;;;;4147053;28;20189;-74
2022/06/28 02:58:23;;;;;;;5.13;2.97;;;13.00;99.90;;;;;;4146743;28;20169;-74
2022/06/28 03:00:23;;;;;;;2.90;2.60;;;13.00;99.90;;;;;;4145968;28;20182;-74
2022/06/28 03:02:24;;;;;;;4.00;2.77;;;13.00;99.90;;;;;;4145359;28;20216;-74
2022/06/28 03:04:24;;;;;;;4.40;2.70;;;13.00;99.90;;;;;;4127775;28;20211;-74
2022/06/28 03:06:25;;;;;;;3.13;2.83;;;13.00;99.90;;;;;;4145925;28;20188;-74
2022/06/28 03:08:25;;;;;;;4.67;3.50;;;13.00;99.90;;;;;;4146129;28;20197;-74
2022/06/28 03:10:26;;;;;;;3.57;3.13;;;13.10;99.90;;;;;;4145981;28;20248;-74
2022/06/28 03:12:27;;;;;;;5.17;3.37;;;13.10;99.90;;;;;;4145474;28;20193;-74
2022/06/28 03:14:27;;;;;;;3.90;3.23;;;13.10;99.90;;;;;;4146431;28;20657;-74
2022/06/28 03:16:28;;;;;;;3.77;3.10;;;13.10;99.90;;;;;;4145925;28;20181;-74
2022/06/28 03:18:28;;;;;;;4.77;3.37;;;13.20;99.90;;;;;;4131752;28;20247;-74
2022/06/28 03:20:29;;;;;;;3.63;3.17;;;13.10;99.90;;;;;;4148874;28;20238;-74
2022/06/28 03:22:30;;;;;;;4.50;3.90;;;13.20;99.90;;;;;;4148217;28;20197;-74
2022/06/28 03:24:30;;;;;;;3.13;2.50;;;13.10;99.90;;;;;;4149030;28;20210;-77
2022/06/28 03:26:31;;;;;;;4.83;3.07;;;13.10;99.90;;;;;;4149158;28;20224;-74
2022/06/28 03:28:31;;;;;;;4.90;3.13;;;13.10;99.90;;;;;;4149053;28;20261;-74
2022/06/28 03:30:32;;;;;;;4.80;3.10;;;13.20;99.90;;;;;;4149018;28;20185;-74
2022/06/28 03:32:33;;;;;;;4.23;2.90;;;13.20;99.90;;;;;;4148100;28;20190;-74
2022/06/28 03:34:34;;;;;;;3.57;3.27;;;13.30;99.90;;;;;;4148886;28;20680;-74
2022/06/28 03:36:34;;;;;;;3.80;3.40;;;13.20;99.90;;;;;;4148832;28;20181;-74
2022/06/28 03:38:35;;;;;;;2.90;2.70;;;13.20;99.90;;;;;;4148872;28;20178;-73
2022/06/28 03:40:35;;;;;;;3.27;2.97;;;13.20;99.90;;;;;;4131282;28;20281;-74
2022/06/28 03:42:36;;;;;;;3.93;3.13;;;13.30;99.90;;;;;;4130370;28;20202;-74
2022/06/28 03:44:37;;;;;;;5.60;3.53;;;13.20;99.90;;;;;;4148323;28;20205;-74
2022/06/28 03:46:37;;;;;;;3.27;2.97;;;13.10;99.90;;;;;;4130800;28;20178;-74
2022/06/28 03:48:38;;;;;;;4.87;3.17;;;13.20;99.90;;;;;;4149471;28;20538;-74
2022/06/28 03:50:38;;;;;;;3.97;2.83;;;13.30;99.90;;;;;;4151357;28;20307;-74
2022/06/28 03:52:39;;;;;;;5.50;3.40;;;13.30;99.90;;;;;;4150350;28;20614;-74
2022/06/28 03:54:39;;;;;;;3.40;3.10;;;13.30;99.90;;;;;;4151123;28;20196;-74
2022/06/28 03:56:40;;;;;;;3.00;2.70;;;13.30;99.90;;;;;;4151133;28;20261;-74
2022/06/28 03:58:41;;;;;;;3.70;3.10;;;13.20;99.90;;;;;;4151296;28;20185;-74
2022/06/28 04:00:41;;;;;;;3.37;2.70;;;13.30;99.90;;;;;;4151149;28;20170;-74
2022/06/28 04:02:42;;;;;;;3.50;3.20;;;13.30;99.90;;;;;;4150878;28;20287;-74
2022/06/28 04:04:43;;;;;;;3.13;2.83;;;13.20;99.90;;;;;;4133695;28;20210;-74
2022/06/28 04:06:44;;;;;;;3.47;2.80;;;13.20;99.90;;;;;;4151070;28;20182;-74
2022/06/28 04:08:44;;;;;;;3.03;2.73;;;13.20;99.90;;;;;;4151189;28;20653;-74
2022/06/28 04:10:46;;;;;;;3.53;2.60;;;13.30;99.90;;;;;;4150611;28;20174;-74
2022/06/28 04:12:46;;;;;;;3.70;2.70;;;13.30;99.90;;;;;;4151620;28;20194;-73
2022/06/28 04:14:47;;;;;;;3.97;2.50;;;13.50;99.90;;;;;;4134133;28;20260;-74
2022/06/28 04:16:47;;;;;;;2.80;2.60;;;13.50;99.90;;;;;;4151643;28;20193;-74
2022/06/28 04:18:49;;;;;;;3.03;2.30;;;13.50;99.90;;;;;;4151855;28;20177;-74
2022/06/28 04:20:49;;;;;;;3.10;2.80;;;13.60;99.90;;;;;;4133396;28;20606;-74
2022/06/28 04:22:50;;;;;;;3.27;2.80;;;13.60;99.90;;;;;;4147065;28;20209;-74
2022/06/28 04:24:51;;;;;;;3.40;2.73;;;13.60;99.90;;;;;;4151243;28;20217;-74
2022/06/28 04:26:51;;;;;;;2.87;2.60;;;13.60;99.90;;;;;;4151522;28;20669;-74
2022/06/28 04:28:52;;;;;;;4.30;2.70;;;13.70;99.90;;;;;;4150578;28;20213;-74
2022/06/28 04:30:52;;;;;;;2.77;2.57;;;13.70;99.90;;;;;;4150544;28;20182;-74
2022/06/28 04:32:53;;;;;;;2.97;2.60;;;13.70;99.90;;;;;;4151412;28;20202;-73
2022/06/28 04:34:54;;;;;;;2.63;2.43;;;13.80;99.90;;;;;;4149933;28;20186;-74
2022/06/28 04:36:54;;;;;;;2.93;2.63;;;13.70;99.90;;;;;;4148853;28;20182;-74
2022/06/28 04:38:55;;;;;;;2.63;2.40;;;13.80;99.90;;;;;;4148762;28;20297;-74
2022/06/28 04:40:55;;;;;;;2.57;2.37;;;14.00;99.90;;;;;;4148107;28;20661;-74
2022/06/28 04:42:56;;;;;;;2.43;2.20;;;14.10;99.90;;;;;;4148902;28;20562;-74
2022/06/28 04:44:56;;;;;;;3.20;2.30;;;14.10;99.90;;;;;;4148566;28;20213;-74
2022/06/28 04:46:57;;;;;;;2.27;2.07;;;14.10;99.90;;;;;;4148787;28;20174;-74
2022/06/28 04:48:57;;;;;;;3.80;2.40;;;14.20;99.90;;;;;;4148630;28;20268;-74
2022/06/28 04:51:10;;;;;;;6.10;3.50;;;14.20;99.90;;;;;;4130396;28;20189;-74
2022/06/28 04:53:11;;;;;;;6.70;3.90;;;14.10;99.90;;;;;;4148371;28;20190;-74
2022/06/28 04:55:11;;;;;;;7.40;3.50;;;14.10;99.90;;;;;;4148633;28;20196;-74
2022/06/28 04:57:12;;;;;;;4.77;3.60;;;14.10;99.90;;;;;;4148735;28;20190;-73
2022/06/28 04:59:13;;;;;;;6.37;3.63;;;14.20;99.90;;;;;;4148524;28;20221;-74
2022/06/28 05:01:13;;;;;;;4.93;3.33;;;14.30;99.90;;;;;;4146761;28;20272;-74
2022/06/28 05:03:14;;;;;;;6.33;2.90;;;14.40;99.90;;;;;;4147051;28;20621;-74
2022/06/28 05:05:14;;;;;;;6.30;3.40;;;14.30;99.90;;;;;;4147192;28;20299;-74
2022/06/28 05:07:15;;;;;;;4.60;3.20;;;14.30;99.90;;;;;;4147236;28;20260;-74
2022/06/28 05:09:15;;;;;;;3.47;2.93;;;14.30;99.90;;;;;;4147319;28;20712;-74
2022/06/28 05:11:16;;;;;;;3.67;3.03;;;14.20;99.90;;;;;;4146559;28;20256;-74
2022/06/28 05:13:17;;;;;;;2.47;2.27;;;14.30;99.90;;;;;;4147383;28;20185;-73
2022/06/28 05:15:17;;;;;;;3.03;2.40;;;14.30;99.90;;;;;;4147308;28;20186;-74
2022/06/28 05:17:18;;;;;;;4.07;2.90;;;14.40;99.90;;;;;;4147137;28;20201;-75
2022/06/28 05:19:19;;;;;;;3.40;2.90;;;14.50;99.90;;;;;;4147171;28;20186;-74
2022/06/28 05:21:19;;;;;;;3.13;2.80;;;14.40;99.90;;;;;;4146499;28;20186;-74
2022/06/28 05:23:20;;;;;;;2.97;2.37;;;14.30;99.90;;;;;;4129429;28;20193;-74
2022/06/28 05:25:20;;;;;;;3.17;2.43;;;14.30;99.90;;;;;;4147122;28;20221;-75
2022/06/28 05:27:21;;;;;;;2.70;2.50;;;14.40;99.90;;;;;;4147161;28;20197;-74
2022/06/28 05:29:22;;;;;;;2.90;2.60;;;14.50;99.90;;;;;;4147028;28;20185;-74
2022/06/28 05:31:22;;;;;;;3.23;2.80;;;14.50;99.90;;;;;;4146280;28;20177;-74
2022/06/28 05:33:23;;;;;;;3.20;2.67;;;14.30;99.90;;;;;;4146936;28;20232;-74
2022/06/28 05:35:23;;;;;;;2.77;2.53;;;14.30;99.90;;;;;;4146903;28;20215;-74
2022/06/28 05:37:24;;;;;;;4.07;3.13;;;14.30;99.90;;;;;;4129273;28;20190;-74
2022/06/28 05:39:24;;;;;;;3.50;2.97;;;14.20;99.90;;;;;;4129002;28;20182;-74
2022/06/28 05:41:25;;;;;;;3.97;2.87;;;14.20;99.90;;;;;;4145969;28;20236;-74
2022/06/28 05:43:25;;;;;;;5.10;3.40;;;14.20;99.90;;;;;;4146681;28;20177;-74
2022/06/28 05:45:26;;;;;;;4.90;3.30;;;14.30;99.90;;;;;;4146704;28;20178;-74
2022/06/28 05:47:27;;;;;;;5.73;4.90;;;14.30;99.90;;;;;;4146707;28;20182;-74
2022/06/28 05:49:27;;;;;;;4.63;4.13;;;14.30;99.90;;;;;;4146686;28;20177;-74
2022/06/28 05:51:29;;;;;;;19.97;18.53;;;14.30;99.90;;;;;;4128340;28;20182;-74
2022/06/28 05:53:30;;;;;;;8.40;7.30;;;14.20;99.90;;;;;;4146259;28;20193;-74
2022/06/28 05:55:31;;;;;;;7.13;6.17;;;14.10;99.90;;;;;;4146429;28;20723;-74
2022/06/28 05:57:31;;;;;;;7.43;5.97;;;14.10;99.90;;;;;;4146558;28;20300;-74
2022/06/28 05:59:32;;;;;;;6.50;5.87;;;14.20;99.90;;;;;;4146577;28;20554;-74
2022/06/28 06:01:33;;;;;;;10.73;6.73;;;14.00;99.90;;;;;;4145890;28;20189;-74
2022/06/28 06:03:34;;;;;;;7.23;5.93;;;14.10;99.90;;;;;;4146511;28;20637;-74
2022/06/28 06:05:34;;;;;;;6.33;5.73;;;14.10;99.90;;;;;;4146517;28;20272;-74
2022/06/28 06:07:35;;;;;;;7.10;6.17;;;14.10;99.90;;;;;;4146396;28;20718;-74
2022/06/28 06:09:36;;;;;;;9.20;5.80;;;14.40;99.90;;;;;;4146331;28;20170;-73
2022/06/28 06:11:37;;;;;;;9.17;5.90;;;14.50;99.90;;;;;;4145528;28;20189;-73
2022/06/28 06:13:37;;;;;;;6.73;5.50;;;14.70;99.90;;;;;;4146324;28;20216;-74
2022/06/28 06:15:38;;;;;;;5.73;5.10;;;14.70;99.90;;;;;;4146221;28;20174;-74
2022/06/28 06:17:39;;;;;;;5.63;5.13;;;14.80;99.90;;;;;;4145977;28;20182;-74
2022/06/28 06:19:39;;;;;;;5.80;5.27;;;15.00;99.90;;;;;;4146081;28;20249;-75
2022/06/28 06:21:40;;;;;;;4.80;4.40;;;15.30;99.90;;;;;;4145282;28;20197;-74
2022/06/28 06:23:41;;;;;;;4.80;4.30;;;15.40;99.90;;;;;;4146039;28;20817;-75
2022/06/28 06:25:41;;;;;;;6.40;4.30;;;15.60;99.90;;;;;;4145637;28;20196;-75
2022/06/28 06:27:42;;;;;;;4.27;3.87;;;15.70;99.90;;;;;;4145988;28;20166;-74
2022/06/28 06:29:43;;;;;;;3.80;3.50;;;15.70;99.90;;;;;;4146025;28;20246;-74
2022/06/28 06:31:44;;;;;;;4.63;3.83;;;15.80;99.90;;;;;;4127803;28;20230;-75
2022/06/28 06:33:44;;;;;;;3.67;3.37;;;15.60;99.90;;;;;;4145906;28;20217;-74
2022/06/28 06:35:45;;;;;;;3.47;3.10;;;15.60;99.90;;;;;;4146023;28;20841;-74
2022/06/28 06:37:45;;;;;;;4.37;3.70;;;15.50;99.90;;;;;;4146132;28;20212;-75
2022/06/28 06:39:46;;;;;;;3.50;3.20;;;15.50;99.90;;;;;;4145825;28;20304;-75
2022/06/28 06:41:47;;;;;;;3.47;3.17;;;15.80;99.90;;;;;;4145196;28;20209;-75
2022/06/28 06:43:47;;;;;;;3.73;3.13;;;15.80;99.90;;;;;;4145847;28;20208;-74
2022/06/28 06:45:48;;;;;;;4.37;3.23;;;16.00;99.90;;;;;;4141253;28;20265;-75
2022/06/28 06:47:48;;;;;;;3.87;3.57;;;16.00;99.90;;;;;;4145664;28;20186;-74
2022/06/28 06:49:49;;;;;;;3.37;3.00;;;16.00;99.90;;;;;;4145432;28;20186;-74
2022/06/28 06:51:50;;;;;;;3.13;2.93;;;16.10;99.90;;;;;;4147128;28;20198;-74
2022/06/28 06:53:51;;;;;;;2.70;2.50;;;16.50;99.90;;;;;;4150885;28;20177;-74
2022/06/28 06:55:51;;;;;;;3.20;2.70;;;16.80;99.90;;;;;;4133736;28;21000;-74
2022/06/28 06:57:52;;;;;;;3.17;2.60;;;17.10;99.90;;;;;;4151359;28;20189;-74
2022/06/28 06:59:52;;;;;;;3.27;3.03;;;17.10;99.40;;;;;;4151214;28;20173;-74
2022/06/28 07:01:53;;;;;;;2.97;2.77;;;17.10;98.90;;;;;;4150593;28;20289;-74
2022/06/28 07:03:53;;;;;;;2.73;2.50;;;16.80;99.90;;;;;;4149259;28;20729;-74
2022/06/28 07:05:54;;;;;;;2.67;2.47;;;17.10;98.40;;;;;;4150821;28;20185;-75
2022/06/28 07:07:55;;;;;;;3.00;2.70;;;17.30;97.30;;;;;;4151045;28;20173;-74
2022/06/28 07:09:56;;;;;;;2.00;1.83;;;17.40;96.80;;;;;;4149597;28;20556;-74
2022/06/28 07:11:56;;;;;;;2.43;2.20;;;17.30;95.60;;;;;;4150493;28;20212;-74
2022/06/28 07:13:57;;;;;;;2.20;2.10;;;17.10;96.60;;;;;;4151138;28;20268;-74
2022/06/28 07:15:57;;;;;;;5.77;5.27;;;17.20;96.30;;;;;;4150994;28;20237;-75
2022/06/28 07:17:58;;;;;;;2.00;1.90;;;17.00;98.80;;;;;;4149686;28;20190;-74
2022/06/28 07:19:59;;;;;;;2.27;2.07;;;16.90;98.80;;;;;;4149767;28;20279;-74
2022/06/28 07:21:59;;;;;;;2.60;1.90;;;17.30;98.10;;;;;;4150382;28;20284;-74
2022/06/28 07:24:01;;;;;;;3.87;2.30;;;17.30;98.10;;;;;;4151126;28;20208;-75
2022/06/28 07:26:02;;;;;;;2.43;2.23;;;17.60;96.60;;;;;;4151097;28;20224;-75
2022/06/28 07:28:03;;;;;;;3.10;2.40;;;17.60;97.00;;;;;;4151022;28;20174;-75
2022/06/28 07:30:03;;;;;;;2.70;2.50;;;17.30;97.00;;;;;;4149598;28;20662;-74
2022/06/28 07:32:05;;;;;;;2.47;2.17;;;17.30;96.60;;;;;;4152747;28;20850;-74
2022/06/28 07:34:05;;;;;;;2.83;2.50;;;17.20;98.30;;;;;;4153583;28;20192;-74
2022/06/28 07:36:06;;;;;;;2.30;2.07;;;17.40;98.40;;;;;;4154665;28;20264;-74
2022/06/28 07:38:07;;;;;;;2.67;1.80;;;17.90;96.20;;;;;;4153433;28;20212;-74
2022/06/28 07:40:08;;;;;;;2.03;1.90;;;18.10;94.60;;;;;;4154798;28;20529;-74
2022/06/28 07:42:09;;;;;;;2.20;2.00;;;17.90;95.50;;;;;;4154720;28;20201;-74
2022/06/28 07:44:09;;;;;;;2.30;2.00;;;17.70;95.80;;;;;;4154634;28;20223;-74
2022/06/28 07:46:10;;;;;;;2.73;2.53;;;18.00;95.20;;;;;;4154903;28;20182;-75
2022/06/28 07:48:10;;;;;;;2.20;2.00;;;18.40;93.60;;;;;;4154879;28;20692;-75
2022/06/28 07:52:39;;;;;;;2.30;2.10;;;17.90;93.90;;;;;;4154132;28;20656;-75
2022/06/28 07:54:39;;;;;;;2.90;2.70;;;18.30;95.20;;;;;;4154584;28;20197;-75
2022/06/28 07:56:40;;;;;;;4.03;3.73;;;18.80;91.80;;;;;;4154723;28;20261;-76
2022/06/28 07:58:41;;;;;;;3.50;2.07;;;19.10;91.20;;;;;;4154811;28;20181;-75
2022/06/28 08:00:41;;;;;;;3.47;3.27;;;19.20;91.90;;;;;;4154643;28;20193;-75
2022/06/28 08:02:42;;;;;;;2.20;2.00;;;19.00;91.10;;;;;;4154211;28;20332;-76
2022/06/28 08:04:42;;;;;;;2.10;1.90;;;18.70;92.30;;;;;;4151969;28;20213;-76
2022/06/28 08:06:43;;;;;;;3.53;1.90;;;18.70;91.40;;;;;;4152452;28;20641;-75
2022/06/28 08:08:43;;;;;;;2.70;2.50;;;18.90;92.60;;;;;;4151064;28;20182;-76
2022/06/28 08:10:44;;;;;;;3.47;2.00;;;18.70;93.50;;;;;;4151565;28;20182;-75
2022/06/28 08:12:45;;;;;;;2.47;2.27;;;18.50;92.50;;;;;;4152094;28;20216;-75
2022/06/28 08:14:46;;;;;;;3.10;2.17;;;18.80;91.40;;;;;;4152118;28;20193;-76
2022/06/28 08:16:46;;;;;;;2.70;2.00;;;19.20;89.60;;;;;;4134598;28;20190;-75
2022/06/28 08:18:47;;;;;;;2.20;2.00;;;19.50;89.70;;;;;;4134486;28;20190;-76
2022/06/28 08:20:47;;;;;;;2.53;2.27;;;19.20;89.80;;;;;;4151335;28;20653;-75
2022/06/28 08:22:48;;;;;;;2.20;1.97;;;19.50;89.20;;;;;;4152060;28;20795;-75
2022/06/28 08:24:49;;;;;;;6.50;6.10;;;19.60;88.20;;;;;;4151453;28;20208;-75
2022/06/28 08:26:49;;;;;;;2.50;2.10;;;19.40;88.20;;;;;;4152134;28;20853;-75
2022/06/28 08:28:50;;;;;;;3.17;2.40;;;19.20;89.30;;;;;;4151833;28;20173;-76
2022/06/28 08:30:51;;;;;;;2.47;2.27;;;19.10;91.70;;;;;;4151139;28;20182;-76
2022/06/28 08:32:51;;;;;;;3.63;3.40;;;19.00;91.70;;;;;;4151845;28;20304;-75
2022/06/28 08:34:52;;;;;;;13.23;12.43;;;19.10;90.80;;;;;;4151578;28;20186;-75
2022/06/28 08:36:53;;;;;;;20.13;19.10;;;18.80;90.60;;;;;;4151741;28;20590;-75
2022/06/28 08:38:53;;;;;;;2.80;2.30;;;18.70;90.60;;;;;;4151559;28;20185;-75
2022/06/28 08:40:54;;;;;;;3.13;2.30;;;18.80;91.80;;;;;;4149055;28;20256;-75
2022/06/28 08:42:58;;;;;;;3.47;2.60;;;18.80;92.20;;;;;;4129917;28;20716;-76
2022/06/28 08:45:03;;;;;;;3.27;2.20;;;19.20;91.70;;;;;;4147512;28;20215;-76
2022/06/28 08:47:04;;;;;;;2.40;2.20;;;19.70;90.30;;;;;;4147200;28;20266;-75
2022/06/28 08:49:23;;;;;;;2.00;1.80;;;19.90;83.60;;;;;;4147590;28;20533;-75
2022/06/28 08:51:30;;;;;;;3.83;2.23;;;19.60;82.50;;;;;;4129503;28;20200;-75
2022/06/28 08:53:31;;;;;;;3.00;2.70;;;19.60;82.40;;;;;;4147828;28;20736;-76
2022/06/28 08:55:33;;;;;;;7.33;6.73;;;19.80;83.00;;;;;;4148047;28;20185;-75
2022/06/28 08:57:35;;;;;;;3.50;3.23;;;19.80;83.90;;;;;;4147434;28;20178;-75
2022/06/28 08:59:36;;;;;;;3.07;2.77;;;19.80;84.50;;;;;;4130131;28;20186;-75
2022/06/28 09:01:37;;;;;;;2.83;2.47;;;19.60;82.70;;;;;;4147014;28;20308;-76
2022/06/28 09:03:38;;;;;;;3.03;2.73;;;19.10;85.40;;;;;;4147346;28;20264;-76
2022/06/28 09:05:39;;;;;;;5.73;5.30;;;19.60;84.60;;;;;;4147331;28;20174;-76
2022/06/28 09:07:39;;;;;;;3.40;2.40;;;19.80;77.80;;;;;;4147344;28;20231;-76
2022/06/28 09:09:40;;;;;;;2.77;2.13;;;19.80;79.50;;;;;;4147065;28;20186;-77
2022/06/28 09:11:44;;;;;;;2.60;2.40;;;19.90;78.90;;;;;;4146529;28;20750;-75
2022/06/28 09:13:45;;;;;;;2.77;2.07;;;20.20;75.80;;;;;;4147198;28;20205;-75
2022/06/28 09:15:47;;;;;;;3.20;3.00;;;20.40;75.50;;;;;;4146704;28;20174;-75
2022/06/28 09:17:52;;;;;;;2.57;1.83;;;20.50;75.00;;;;;;4147033;28;20181;-74
2022/06/28 09:20:00;;;;;;;3.13;2.83;;;20.60;72.10;;;;;;4146947;28;20184;-74
2022/06/28 09:22:03;;;;;;;2.57;2.20;;;20.40;72.90;;;;;;4146488;28;20232;-74
2022/06/28 09:24:04;;;;;;;2.80;2.60;;;20.70;73.80;;;;;;4129421;28;20221;-75
2022/06/28 09:26:07;;;;;;;2.30;2.10;;;21.30;71.10;;;;;;4146729;28;20182;-74
2022/06/28 09:28:08;;;;;;;2.93;2.30;;;21.60;68.50;;;;;;4146891;28;20640;-74
2022/06/28 09:30:13;;;;;;;2.33;2.13;;;21.90;68.60;;;;;;4146985;28;20188;-75
2022/06/28 09:32:13;;;;;;;8.77;8.17;;;22.20;67.10;;;;;;4146608;28;20283;-74
2022/06/28 09:34:14;;;;;;;2.23;2.03;;;22.20;66.90;;;;;;4147073;28;20178;-73
2022/06/28 09:36:17;;;;;;;3.67;2.03;;;22.50;67.20;;;;;;4148526;28;20247;-75
2022/06/28 09:38:32;;;;;;;9.43;8.93;;;21.50;70.50;;;;;;4147074;28;20280;-73
2022/06/28 09:40:33;;;;;;;3.53;3.30;;;21.90;68.60;;;;;;4146985;28;20184;-74
2022/06/28 09:42:34;;;;;;;3.97;3.27;;;21.70;68.80;;;;;;4146451;28;20206;-73
2022/06/28 09:44:34;;;;;;;2.23;2.03;;;21.60;67.30;;;;;;4146845;28;20249;-73
2022/06/28 09:46:35;;;;;;;2.47;2.10;;;21.60;69.00;;;;;;4146930;28;20185;-72
2022/06/28 09:48:36;;;;;;;12.23;11.53;;;21.90;67.60;;;;;;4146936;28;20244;-72
2022/06/28 09:50:37;;;;;;;4.10;2.07;;;21.70;66.80;;;;;;4146917;28;20177;-72
2022/06/28 09:52:42;;;;;;;4.30;2.20;;;22.00;66.80;;;;;;4146275;28;20221;-72
2022/06/28 09:54:46;;;;;;;5.17;4.83;;;21.80;65.60;;;;;;4146643;28;20197;-72
2022/06/28 09:56:55;;;;;;;23.53;22.07;;;21.40;67.80;;;;;;4146896;28;20209;-72
2022/06/28 09:58:56;;;;;;;6.77;6.37;;;21.60;69.00;;;;;;4129270;28;20649;-72
2022/06/28 10:00:57;;;;;;;2.63;2.20;;;21.80;67.20;;;;;;4128703;28;20221;-73
2022/06/28 10:02:58;;;;;;;3.37;2.17;;;21.50;66.40;;;;;;4146311;28;20194;-74
2022/06/28 10:05:01;;;;;;;2.43;2.00;;;21.60;67.00;;;;;;4146268;28;20198;-74
2022/06/28 10:07:01;;;;;;;2.27;2.13;;;21.80;66.40;;;;;;4146065;28;20178;-73
2022/06/28 10:09:06;;;;;;;4.50;4.30;;;21.60;68.50;;;;;;4146416;28;20178;-73
2022/06/28 10:11:07;;;;;;;3.80;2.23;;;21.60;66.00;;;;;;4146274;28;20723;-74
2022/06/28 10:15:32;;;;;;;2.10;1.90;;;21.40;66.90;;;;;;4146544;28;20191;-73
2022/06/28 10:17:51;;;;;;;70.17;66.53;;;22.10;64.40;;;;;;4146228;28;20182;-73
2022/06/28 10:19:52;;;;;;;57.20;54.23;;;21.90;64.80;;;;;;4146020;28;20626;-73
2022/06/28 10:21:52;;;;;;;2.40;2.20;;;21.70;67.00;;;;;;4145839;28;20201;-73
2022/06/28 10:23:53;;;;;;;2.67;2.30;;;21.50;66.70;;;;;;4146130;28;20209;-73
2022/06/28 10:26:15;;;;;;;3.50;3.30;;;21.60;67.00;;;;;;4145736;28;20177;-73
2022/06/28 10:28:27;;;;;;;3.50;3.17;;;20.80;71.00;;;;;;4145855;28;20170;-72
2022/06/28 10:30:30;;;;;;;3.20;2.73;;;20.90;70.80;;;;;;4145952;28;20606;-73
2022/06/28 10:32:45;;;;;;;6.70;6.23;;;20.60;72.30;;;;;;4145452;28;20181;-72
2022/06/28 10:34:53;;;;;;;3.70;3.40;;;20.60;70.60;;;;;;4146113;28;20672;-71
2022/06/28 10:36:55;;;;;;;3.20;2.27;;;20.30;72.30;;;;;;4128580;28;20186;-71
2022/06/28 10:39:08;;;;;;;4.20;2.77;;;20.20;73.30;;;;;;4146024;28;20561;-71
2022/06/28 10:41:13;;;;;;;3.10;2.20;;;20.20;73.50;;;;;;4145484;28;20192;-71
2022/06/28 10:43:26;;;;;;;2.53;2.33;;;20.10;75.10;;;;;;4146138;28;20257;-71